Terminal Aerodrome Forecast
Issued by NWS

Home | Current Version | Previous Version | Graphics & Text | Print | Product List | Glossary On
Versions: 1 2 3 4 5 6 7 8 9 10 11 12 13 14 15 16 17 18 19 20 21 22 23 24 25 26
000
FTUS43 KLOT 310531
TAFDPA
TAF
KDPA 310531Z 3106/0106 10005KT P6SM SCT060
     FM311500 12008KT P6SM SCT050
     FM311900 13008KT P6SM SCT050 BKN100
      TEMPO 3121/0101 3SM TSRA OVC050CB
     FM010300 13009KT P6SM SCT050 BKN080=

USA.gov is the U.S. government's official web portal to all federal, state and local government web resources and services.